Terminal Aerodrome Forecast
Issued by NWS

Home | Current Version | Previous Version | Text Only | Print | Product List | Glossary On
Versions: 1 2 3 4 5 6 7 8 9 10 11 12 13 14 15
029
FTUS45 KTFX 052334
TAFLWT
TAF
KLWT 052334Z 0600/0624 23012KT P6SM SCT150
     FM060600 24018G30KT P6SM BKN150
     FM061800 28035G48KT P6SM BKN100=

USA.gov is the U.S. government's official web portal to all federal, state and local government web resources and services.